Capon Bridge, West Virginia
Current Conditions -  °F | °C
As of 5:15 AM on Friday 21 Nov 2014 (Local Time) from KOKV Reporting Station
Broken Clouds Broken Clouds  
Wind Chill: 18°   Ceiling: 5000
Heat Index: 30°   Visibility: 10mi
Dew Point:   Wind: 17mph
Humidity: 32%   Direction: 300°WNW
Pressure: 30.26"   Gusts: 23mph
Location:  39.3°N, 78.44°W
Report Text: KOKV 211015Z AUTO 30015G20KT 10SM BKN050 M01/M16 A3026 RMK AO2
Loading
Personal Weather Stations






























Interactive Weather Map New forecast layout! Learn more

10-Day Weather Forecast

Advertisements
Track Severe Weather on mobile